CST,Max TemperatureF,Mean TemperatureF,Min TemperatureF,Max Dew PointF,MeanDew PointF,Min DewpointF,Max Humidity, Mean Humidity, Min Humidity, Max Sea Level PressureIn, Mean Sea Level PressureIn, Min Sea Level PressureIn, Max VisibilityMiles, Mean VisibilityMiles, Min VisibilityMiles, Max Wind SpeedMPH, Mean Wind SpeedMPH, Max Gust SpeedMPH,PrecipitationIn, CloudCover, Events, WindDirDegrees
2012-11-1,69,52,35,42,33,18,89,58,14,30.05,30.00,29.96,10,10,10,13,3,17,0.00,0,,305
2012-11-2,79,59,39,53,44,36,89,66,28,30.05,30.01,29.96,10,10,10,13,2,20,0.00,0,,264
2012-11-3,83,66,49,60,53,46,89,70,33,30.12,30.06,30.03,10,10,5,10,1,16,0.00,0,,275
2012-11-4,73,64,54,61,53,41,90,72,53,30.08,30.05,30.01,10,9,5,10,3,18,0.00,1,Rain,313
2012-11-5,71,54,37,52,40,28,90,62,22,30.09,30.02,29.94,10,10,5,9,2,21,0.36,2,Rain-Thunderstorm,32
2012-11-6,54,52,49,52,49,46,90,84,74,29.99,29.95,29.91,10,10,5,12,4,16,0.00,8,Rain-Thunderstorm,315
2012-11-7,59,50,42,47,42,36,91,74,45,30.10,29.99,29.92,10,9,0,17,4,30,0.02,4,Fog-Rain,321
2012-11-8,63,51,39,46,40,36,91,75,40,30.23,30.18,30.10,10,8,0,9,3,,0.00,1,Fog,324
2012-11-9,72,53,34,48,38,32,90,68,24,30.32,30.25,30.21,10,9,1,5,0,,0.00,0,,175
2012-11-10,74,56,37,50,39,31,89,66,22,30.36,30.30,30.26,10,10,7,6,1,,0.00,0,,155
2012-11-11,74,56,37,54,47,34,89,67,39,30.38,30.29,30.24,10,10,7,14,2,21,0.00,0,,141
2012-11-12,69,58,47,66,55,40,88,80,68,30.33,30.25,30.18,10,9,3,15,7,21,0.29,4,Rain,96
2012-11-13,59,48,37,38,28,23,82,52,25,30.37,30.31,30.26,10,10,10,15,7,20,0.00,0,,358
2012-11-14,57,48,39,44,39,28,75,66,58,30.32,30.28,30.24,10,10,10,9,3,16,0.00,6,,71
2012-11-15,57,50,42,46,43,39,90,78,59,30.30,30.26,30.23,10,10,7,7,2,,0.00,5,,56
2012-11-16,67,52,37,46,40,32,90,67,27,30.31,30.27,30.23,10,10,5,8,1,,0.00,2,,37
2012-11-17,63,51,39,41,35,28,89,63,27,30.41,30.35,30.30,10,10,7,13,3,20,0.00,0,,42
2012-11-18,67,52,37,49,37,30,89,64,34,30.38,30.33,30.28,10,10,10,9,2,,0.00,0,,40
2012-11-19,69,54,39,51,44,37,90,68,41,30.31,30.25,30.18,10,10,4,7,1,,0.00,3,,17
2012-11-20,70,57,44,50,45,40,90,66,35,30.21,30.14,30.09,10,10,7,6,1,,0.00,1,,299
2012-11-21,74,58,42,49,44,39,90,67,29,30.19,30.15,30.12,10,10,7,12,1,,0.00,1,,347
2012-11-22,74,56,39,49,43,36,90,68,29,30.26,30.20,30.17,10,9,5,5,0,,0.00,0,,116
2012-11-23,74,56,39,55,45,36,90,66,32,30.21,30.16,30.09,10,9,5,14,4,20,0.00,2,,291
2012-11-24,56,43,30,36,25,13,82,50,19,30.24,30.18,30.15,10,10,10,15,6,18,0.00,0,,331
2012-11-25,63,46,28,36,22,1,84,54,8,30.22,30.15,30.10,10,10,10,7,1,,0.00,0,,248
2012-11-26,69,49,29,46,36,25,85,62,30,30.23,30.17,30.13,10,10,10,7,1,,0.00,1,,189
2012-11-27,61,55,49,57,52,43,90,86,76,30.26,30.17,30.11,10,8,2,13,3,22,0.01,7,Rain-Thunderstorm,335
2012-11-28,62,48,34,43,33,24,89,60,23,30.39,30.34,30.27,10,10,10,12,6,10,0.00,2,,349
2012-11-29,61,46,30,46,36,25,90,70,38,30.43,30.36,30.31,10,9,5,7,1,9,0.00,0,,115
2012-11-30,69,54,39,52,46,36,89,76,50,30.35,30.30,30.25,10,9,4,8,1,,0.00,5,,119